createdAt,value
2018-08-11T00:02:13.659Z,16.70
2018-08-11T00:04:41.332Z,16.80
2018-08-11T00:07:08.982Z,16.80
2018-08-11T00:09:36.639Z,16.80
2018-08-11T00:12:04.608Z,16.70
2018-08-11T00:14:32.274Z,16.80
2018-08-11T00:17:00.018Z,16.50
2018-08-11T00:19:27.777Z,16.60
2018-08-11T00:21:55.446Z,16.60
2018-08-11T00:24:23.040Z,16.40
2018-08-11T00:26:50.692Z,16.50
2018-08-11T00:29:18.351Z,16.30
2018-08-11T00:31:45.962Z,16.40
2018-08-11T00:34:13.631Z,16.30
2018-08-11T00:36:41.226Z,16.40
2018-08-11T00:39:10.632Z,16.40
2018-08-11T00:41:38.233Z,16.40
2018-08-11T00:44:06.602Z,16.40
2018-08-11T00:46:34.226Z,16.30
2018-08-11T00:49:01.896Z,16.30
2018-08-11T00:51:29.512Z,16.20
2018-08-11T00:53:57.095Z,16.30
2018-08-11T00:56:24.735Z,16.20
2018-08-11T00:58:52.969Z,16.40
2018-08-11T01:01:20.675Z,16.50
2018-08-11T01:03:48.309Z,16.50
2018-08-11T01:06:15.941Z,16.40
2018-08-11T01:08:43.573Z,16.40
2018-08-11T01:11:11.361Z,16.30
2018-08-11T01:13:39.370Z,16.30
2018-08-11T01:16:07.009Z,16.20
2018-08-11T01:18:34.663Z,16.10
2018-08-11T01:21:02.332Z,16.10
2018-08-11T01:23:29.977Z,16.10
2018-08-11T01:25:57.597Z,16.10
2018-08-11T01:28:25.245Z,16.00
2018-08-11T01:30:52.881Z,16.00
2018-08-11T01:33:20.537Z,16.00
2018-08-11T01:35:48.172Z,16.00
2018-08-11T01:38:15.794Z,15.90
2018-08-11T01:40:43.472Z,15.90
2018-08-11T01:43:11.381Z,15.80
2018-08-11T01:45:38.968Z,15.90
2018-08-11T01:48:07.256Z,15.90
2018-08-11T01:50:34.884Z,15.80
2018-08-11T01:53:02.471Z,15.80
2018-08-11T01:55:30.124Z,15.70
2018-08-11T01:57:57.702Z,15.70
2018-08-11T02:00:25.262Z,15.80
2018-08-11T02:02:52.905Z,15.80
2018-08-11T02:05:20.579Z,15.80
2018-08-11T02:07:48.325Z,15.80
2018-08-11T02:10:18.376Z,15.90
2018-08-11T02:12:46.524Z,16.00
2018-08-11T02:15:14.608Z,16.20
2018-08-11T02:17:42.273Z,16.20
2018-08-11T02:20:12.751Z,16.10
2018-08-11T02:22:41.699Z,16.10
2018-08-11T02:25:09.760Z,16.00
2018-08-11T02:27:37.720Z,16.00
2018-08-11T02:30:09.320Z,15.90
2018-08-11T02:32:37.339Z,15.90
2018-08-11T02:35:06.113Z,15.90
2018-08-11T02:37:33.733Z,15.70
2018-08-11T02:40:01.342Z,15.70
2018-08-11T02:42:28.948Z,15.60
2018-08-11T02:44:56.567Z,15.70
2018-08-11T02:47:24.196Z,15.70
2018-08-11T02:49:51.796Z,15.60
2018-08-11T02:52:19.441Z,15.60
2018-08-11T02:54:47.058Z,15.60
2018-08-11T02:57:14.708Z,15.50
2018-08-11T02:59:42.406Z,15.50
2018-08-11T03:02:10.029Z,15.50
2018-08-11T03:04:37.662Z,15.40
2018-08-11T03:07:06.788Z,15.20
2018-08-11T03:09:34.408Z,15.30
2018-08-11T03:12:02.086Z,15.20
2018-08-11T03:14:29.719Z,15.20
2018-08-11T03:16:57.330Z,15.20
2018-08-11T03:19:25.092Z,15.20
2018-08-11T03:21:53.061Z,15.10
2018-08-11T03:24:20.686Z,15.00
2018-08-11T03:26:48.314Z,15.00
2018-08-11T03:29:15.981Z,14.90
2018-08-11T03:31:43.561Z,15.00
2018-08-11T03:34:11.152Z,15.00
2018-08-11T03:36:38.781Z,15.10
2018-08-11T03:39:08.948Z,15.20
2018-08-11T03:41:36.489Z,15.10
2018-08-11T03:44:04.349Z,15.20
2018-08-11T03:46:31.958Z,15.30
2018-08-11T03:48:59.513Z,15.30
2018-08-11T03:51:27.131Z,15.40
2018-08-11T03:53:55.227Z,15.50
2018-08-11T03:56:22.847Z,15.60
2018-08-11T03:58:50.412Z,15.60
2018-08-11T04:01:18.006Z,15.60
2018-08-11T04:03:45.799Z,15.60
2018-08-11T04:06:13.423Z,15.70
2018-08-11T04:08:41.026Z,15.70
2018-08-11T04:11:08.638Z,15.80
2018-08-11T04:13:36.276Z,16.00
2018-08-11T04:16:03.878Z,16.10
2018-08-11T04:18:31.486Z,16.20
2018-08-11T04:20:59.091Z,16.30
2018-08-11T04:23:26.693Z,16.30
2018-08-11T04:25:54.355Z,16.40
2018-08-11T04:28:22.036Z,16.50
2018-08-11T04:30:49.637Z,16.60
2018-08-11T04:33:17.320Z,16.70
2018-08-11T04:35:44.955Z,16.70
2018-08-11T04:38:12.497Z,16.80
2018-08-11T04:40:40.073Z,16.90
2018-08-11T04:43:07.663Z,17.10
2018-08-11T04:45:35.309Z,17.10
2018-08-11T04:48:03.267Z,17.30
2018-08-11T04:50:30.943Z,17.30
2018-08-11T04:52:58.566Z,17.40
2018-08-11T04:55:26.152Z,17.40
2018-08-11T04:57:53.805Z,17.60
2018-08-11T05:00:21.385Z,17.70
2018-08-11T05:02:48.965Z,17.50
2018-08-11T05:05:16.590Z,17.40
2018-08-11T05:07:44.208Z,17.30
2018-08-11T05:10:11.867Z,17.20
2018-08-11T05:12:39.496Z,17.30
2018-08-11T05:15:07.799Z,17.40
2018-08-11T05:17:35.490Z,17.30
2018-08-11T05:20:03.133Z,17.80
2018-08-11T05:22:30.722Z,17.90
2018-08-11T05:24:58.322Z,18.10
2018-08-11T05:27:26.086Z,18.20
2018-08-11T05:29:53.932Z,18.10
2018-08-11T05:32:21.504Z,18.10
2018-08-11T05:34:49.172Z,18.10
2018-08-11T05:37:16.769Z,18.30
2018-08-11T05:39:44.318Z,18.40
2018-08-11T05:42:11.952Z,18.60
2018-08-11T05:44:39.563Z,18.70
2018-08-11T05:47:07.206Z,18.70
2018-08-11T05:49:34.939Z,18.70
2018-08-11T05:52:02.575Z,18.70
2018-08-11T05:54:30.153Z,18.70
2018-08-11T05:56:57.787Z,18.50
2018-08-11T05:59:25.461Z,18.50
2018-08-11T06:01:53.085Z,18.50
2018-08-11T06:04:20.707Z,18.50
2018-08-11T06:06:48.289Z,18.60
2018-08-11T06:09:15.932Z,18.70
2018-08-11T06:11:43.605Z,18.70
2018-08-11T06:14:11.198Z,18.80
2018-08-11T06:16:38.814Z,18.70
2018-08-11T06:19:06.465Z,19.00
2018-08-11T06:21:34.050Z,19.30
2018-08-11T06:24:01.680Z,19.70
2018-08-11T06:26:29.302Z,19.50
2018-08-11T06:28:56.870Z,19.50
2018-08-11T06:31:24.531Z,19.50
2018-08-11T06:33:52.206Z,19.00
2018-08-11T06:36:19.874Z,19.20
2018-08-11T06:38:47.453Z,19.10
2018-08-11T06:41:15.090Z,19.00
2018-08-11T06:43:42.673Z,18.60
2018-08-11T06:46:10.311Z,18.60
2018-08-11T06:48:37.977Z,18.50
2018-08-11T06:51:05.849Z,18.70
2018-08-11T06:53:33.461Z,18.70
2018-08-11T06:56:01.073Z,18.80
2018-08-11T06:58:28.672Z,19.40
2018-08-11T07:00:56.325Z,19.70
2018-08-11T07:03:23.885Z,19.60
2018-08-11T07:05:51.479Z,19.60
2018-08-11T07:08:19.105Z,20.10
2018-08-11T07:10:46.695Z,20.40
2018-08-11T07:13:14.372Z,20.70
2018-08-11T07:15:41.965Z,21.00
2018-08-11T07:18:09.481Z,21.30
2018-08-11T07:20:37.071Z,21.80
2018-08-11T07:23:04.636Z,22.00
2018-08-11T07:25:32.206Z,22.50
2018-08-11T07:27:59.774Z,22.90
2018-08-11T07:30:27.375Z,23.40
2018-08-11T07:32:54.986Z,23.90
2018-08-11T07:35:22.605Z,23.90
2018-08-11T07:37:50.216Z,24.30
2018-08-11T07:40:17.822Z,24.20
2018-08-11T07:42:45.621Z,24.20
2018-08-11T07:45:13.308Z,23.60
2018-08-11T07:47:41.068Z,24.20
2018-08-11T07:50:08.730Z,24.00
2018-08-11T07:52:36.330Z,24.50
2018-08-11T07:55:03.992Z,23.40
2018-08-11T07:57:31.645Z,23.40
2018-08-11T07:59:59.481Z,23.70
2018-08-11T08:02:27.140Z,23.60
2018-08-11T08:04:54.731Z,23.70
2018-08-11T08:07:22.361Z,23.60
2018-08-11T08:09:49.967Z,23.40
2018-08-11T08:12:17.573Z,23.20
2018-08-11T08:14:45.203Z,23.00
2018-08-11T08:17:12.781Z,23.00
2018-08-11T08:19:40.642Z,23.20
2018-08-11T08:22:08.300Z,23.40
2018-08-11T08:24:36.009Z,23.60
2018-08-11T08:27:03.721Z,23.70
2018-08-11T08:29:31.387Z,23.60
2018-08-11T08:31:59.025Z,23.30
2018-08-11T08:34:26.711Z,23.60
2018-08-11T08:36:54.311Z,23.80
2018-08-11T08:39:21.896Z,24.20
2018-08-11T08:41:49.683Z,24.30
2018-08-11T08:44:17.292Z,24.30
2018-08-11T08:46:45.039Z,24.50
2018-08-11T08:49:12.740Z,24.00
2018-08-11T08:51:40.439Z,23.80
2018-08-11T08:54:08.159Z,24.20
2018-08-11T08:56:35.882Z,24.00
2018-08-11T08:59:03.740Z,24.20
2018-08-11T09:01:31.585Z,24.10
2018-08-11T09:03:59.235Z,24.20
2018-08-11T09:06:26.849Z,24.10
2018-08-11T09:08:54.548Z,24.20
2018-08-11T09:11:22.246Z,23.60
2018-08-11T09:13:49.938Z,24.00
2018-08-11T09:16:17.526Z,24.10
2018-08-11T09:18:45.088Z,24.40
2018-08-11T09:21:12.693Z,24.80
2018-08-11T09:23:40.343Z,24.80
2018-08-11T09:26:08.143Z,24.90
2018-08-11T09:28:35.764Z,25.10
2018-08-11T09:31:03.388Z,25.10
2018-08-11T09:33:31.158Z,25.00
2018-08-11T09:35:58.845Z,24.80
2018-08-11T09:38:26.481Z,24.30
2018-08-11T09:40:54.174Z,24.30
2018-08-11T09:43:21.877Z,24.20
2018-08-11T09:45:49.642Z,24.20
2018-08-11T09:48:17.171Z,24.20
2018-08-11T09:50:44.827Z,24.50
2018-08-11T09:53:12.546Z,24.70
2018-08-11T09:55:40.152Z,24.50
2018-08-11T09:58:08.483Z,24.70
2018-08-11T10:00:41.743Z,24.80
2018-08-11T10:03:09.327Z,24.40
2018-08-11T10:05:37.237Z,24.30
2018-08-11T10:08:04.906Z,24.20
2018-08-11T10:10:32.658Z,24.20
2018-08-11T10:13:00.604Z,24.10
2018-08-11T10:15:28.378Z,24.20
2018-08-11T10:17:56.078Z,24.50
2018-08-11T10:20:23.765Z,24.40
2018-08-11T10:22:52.019Z,24.30
2018-08-11T10:25:19.683Z,24.40
2018-08-11T10:27:47.346Z,24.60
2018-08-11T10:30:14.955Z,24.80
2018-08-11T10:32:42.616Z,24.90
2018-08-11T10:35:10.284Z,25.00
2018-08-11T10:37:37.959Z,25.10
2018-08-11T10:40:06.165Z,25.40
2018-08-11T10:42:33.750Z,25.30
2018-08-11T10:45:01.357Z,24.90
2018-08-11T10:47:28.981Z,24.70
2018-08-11T10:49:56.778Z,24.90
2018-08-11T10:52:24.393Z,25.00
2018-08-11T10:54:52.007Z,25.00
2018-08-11T10:57:19.705Z,24.90
2018-08-11T10:59:47.429Z,24.80
2018-08-11T11:02:15.064Z,25.10
2018-08-11T11:04:43.287Z,25.00
2018-08-11T11:07:11.229Z,25.20
2018-08-11T11:09:38.845Z,25.30
2018-08-11T11:12:06.729Z,24.90
2018-08-11T11:14:34.528Z,24.60
2018-08-11T11:17:02.163Z,24.70
2018-08-11T11:19:29.897Z,24.60
2018-08-11T11:21:57.533Z,24.70
2018-08-11T11:24:25.164Z,24.90
2018-08-11T11:26:52.785Z,25.50
2018-08-11T11:29:20.447Z,25.70
2018-08-11T11:31:48.804Z,25.60
2018-08-11T11:34:16.412Z,25.80
2018-08-11T11:36:44.019Z,26.00
2018-08-11T11:39:11.614Z,25.80
2018-08-11T11:41:39.270Z,25.90
2018-08-11T11:44:07.594Z,25.80
2018-08-11T11:46:35.562Z,25.50
2018-08-11T11:49:03.377Z,25.20
2018-08-11T11:51:31.032Z,24.90
2018-08-11T11:53:59.074Z,24.50
2018-08-11T11:56:26.748Z,24.30
2018-08-11T11:58:54.557Z,24.80
2018-08-11T12:01:22.364Z,25.10
2018-08-11T12:03:50.116Z,26.90
2018-08-11T12:06:17.921Z,27.80
2018-08-11T12:08:45.613Z,29.00
2018-08-11T12:11:13.328Z,30.10
2018-08-11T12:13:41.050Z,28.70
2018-08-11T12:16:08.845Z,27.90
2018-08-11T12:18:36.495Z,28.90
2018-08-11T12:21:04.201Z,30.10
2018-08-11T12:23:31.782Z,29.10
2018-08-11T12:25:59.769Z,31.20
2018-08-11T12:28:28.111Z,31.40
2018-08-11T12:30:55.749Z,32.40
2018-08-11T12:33:23.443Z,33.60
2018-08-11T12:35:51.231Z,33.00
2018-08-11T12:38:18.909Z,34.10
2018-08-11T12:40:46.472Z,34.40
2018-08-11T12:43:14.119Z,35.30
2018-08-11T12:45:41.701Z,35.10
2018-08-11T12:48:09.265Z,34.20
2018-08-11T12:50:37.597Z,32.80
2018-08-11T12:53:05.233Z,31.60
2018-08-11T12:55:32.948Z,30.60
2018-08-11T12:58:00.635Z,31.30
2018-08-11T13:00:28.251Z,33.20
2018-08-11T13:02:55.979Z,34.00
2018-08-11T13:05:23.631Z,35.10
2018-08-11T13:07:51.494Z,36.20
2018-08-11T13:10:19.188Z,35.10
2018-08-11T13:12:46.957Z,36.10
2018-08-11T13:15:14.707Z,33.50
2018-08-11T13:17:42.362Z,33.50
2018-08-11T13:20:09.999Z,31.90
2018-08-11T13:22:37.750Z,30.10
2018-08-11T13:25:05.572Z,29.20
2018-08-11T13:27:33.246Z,30.00
2018-08-11T13:30:01.082Z,31.90
2018-08-11T13:32:28.813Z,32.40
2018-08-11T13:34:56.493Z,31.70
2018-08-11T13:37:24.125Z,30.30
2018-08-11T13:39:52.164Z,30.70
2018-08-11T13:42:20.476Z,31.80
2018-08-11T13:44:48.256Z,31.90
2018-08-11T13:47:16.697Z,32.50
2018-08-11T13:49:44.417Z,32.70
2018-08-11T13:52:12.149Z,32.60
2018-08-11T13:54:39.802Z,32.60
2018-08-11T13:57:07.625Z,32.10
2018-08-11T13:59:35.301Z,34.20
2018-08-11T14:02:03.242Z,35.70
2018-08-11T14:04:31.985Z,34.40
2018-08-11T14:06:59.999Z,32.20
2018-08-11T14:09:27.744Z,30.30
2018-08-11T14:11:55.457Z,31.10
2018-08-11T14:14:23.167Z,32.80
2018-08-11T14:16:50.789Z,34.50
2018-08-11T14:19:18.583Z,33.20
2018-08-11T14:21:46.177Z,33.80
2018-08-11T14:24:13.833Z,34.50
2018-08-11T14:26:41.455Z,33.60
2018-08-11T14:29:09.004Z,33.20
2018-08-11T14:31:36.652Z,31.70
2018-08-11T14:34:04.277Z,30.10
2018-08-11T14:36:31.864Z,29.70
2018-08-11T14:38:59.578Z,30.80
2018-08-11T14:41:27.194Z,30.40
2018-08-11T14:43:54.878Z,28.10
2018-08-11T14:46:22.502Z,27.40
2018-08-11T14:48:50.068Z,29.70
2018-08-11T14:51:17.686Z,32.90
2018-08-11T14:53:45.277Z,34.50
2018-08-11T14:56:12.934Z,32.80
2018-08-11T14:58:40.700Z,30.20
2018-08-11T15:01:09.237Z,28.80
2018-08-11T15:03:37.834Z,28.70
2018-08-11T15:06:05.424Z,30.50
2018-08-11T15:08:33.027Z,30.90
2018-08-11T15:11:00.612Z,29.70
2018-08-11T15:13:28.293Z,28.40
2018-08-11T15:15:56.048Z,30.50
2018-08-11T15:18:23.782Z,31.90
2018-08-11T15:20:51.375Z,33.70
2018-08-11T15:23:18.934Z,34.50
2018-08-11T15:25:46.619Z,34.10
2018-08-11T15:28:14.265Z,33.10
2018-08-11T15:30:41.972Z,34.70
2018-08-11T15:33:10.162Z,35.80
2018-08-11T15:35:37.805Z,35.50
2018-08-11T15:38:05.437Z,34.80
2018-08-11T15:40:33.181Z,34.20
2018-08-11T15:43:00.774Z,35.00
2018-08-11T15:45:28.387Z,34.10
2018-08-11T15:47:56.009Z,31.60
2018-08-11T15:50:23.617Z,32.40
2018-08-11T15:52:51.191Z,31.50
2018-08-11T15:55:18.811Z,30.60
2018-08-11T15:57:46.357Z,30.90
2018-08-11T16:00:13.982Z,30.90
2018-08-11T16:02:41.510Z,31.90
2018-08-11T16:05:09.856Z,32.90
2018-08-11T16:07:37.504Z,34.00
2018-08-11T16:10:05.721Z,35.60
2018-08-11T16:12:33.298Z,35.30
2018-08-11T16:15:00.901Z,33.80
2018-08-11T16:17:28.614Z,34.50
2018-08-11T16:19:56.230Z,35.60
2018-08-11T16:22:23.968Z,35.40
2018-08-11T16:24:51.724Z,36.60
2018-08-11T16:27:19.322Z,35.30
2018-08-11T16:29:47.470Z,35.50
2018-08-11T16:32:15.104Z,33.40
2018-08-11T16:34:42.615Z,33.60
2018-08-11T16:37:10.341Z,33.20
2018-08-11T16:39:38.038Z,32.40
2018-08-11T16:42:05.692Z,31.50
2018-08-11T16:44:33.364Z,33.10
2018-08-11T16:47:00.894Z,33.70
2018-08-11T16:49:28.605Z,32.70
2018-08-11T16:51:56.227Z,33.20
2018-08-11T16:54:23.825Z,32.80
2018-08-11T16:56:51.422Z,34.20
2018-08-11T16:59:19.042Z,34.20
2018-08-11T17:01:46.658Z,34.30
2018-08-11T17:04:14.399Z,32.20
2018-08-11T17:06:42.162Z,31.30
2018-08-11T17:09:10.953Z,31.70
2018-08-11T17:11:38.575Z,32.70
2018-08-11T17:14:07.023Z,33.70
2018-08-11T17:16:34.953Z,32.90
2018-08-11T17:19:03.362Z,32.80
2018-08-11T17:21:30.954Z,31.80
2018-08-11T17:23:58.768Z,32.20
2018-08-11T17:26:26.352Z,32.50
2018-08-11T17:28:53.978Z,32.70
2018-08-11T17:31:21.602Z,32.80
2018-08-11T17:33:49.205Z,32.40
2018-08-11T17:36:16.994Z,31.10
2018-08-11T17:38:44.694Z,30.50
2018-08-11T17:41:12.262Z,30.10
2018-08-11T17:43:39.802Z,30.10
2018-08-11T17:46:07.473Z,29.40
2018-08-11T17:48:35.111Z,28.50
2018-08-11T17:51:02.765Z,27.40
2018-08-11T17:53:30.346Z,26.40
2018-08-11T17:55:57.986Z,25.70
2018-08-11T17:58:25.605Z,25.20
2018-08-11T18:00:53.170Z,24.70
2018-08-11T18:03:20.803Z,24.40
2018-08-11T18:05:48.449Z,24.20
2018-08-11T18:08:16.005Z,24.00
2018-08-11T18:10:43.695Z,23.80
2018-08-11T18:13:11.333Z,23.50
2018-08-11T18:15:38.994Z,23.40
2018-08-11T18:18:06.898Z,23.40
2018-08-11T18:20:34.505Z,23.20
2018-08-11T18:23:02.121Z,23.10
2018-08-11T18:25:29.786Z,23.00
2018-08-11T18:27:57.454Z,22.90
2018-08-11T18:30:25.060Z,22.70
2018-08-11T18:32:53.061Z,22.60
2018-08-11T18:35:20.655Z,22.50
2018-08-11T18:37:48.276Z,22.40
2018-08-11T18:40:15.902Z,22.30
2018-08-11T18:42:43.570Z,22.20
2018-08-11T18:45:11.200Z,22.20
2018-08-11T18:47:38.866Z,22.10
2018-08-11T18:50:06.478Z,22.00
2018-08-11T18:52:34.053Z,21.90
2018-08-11T18:55:01.731Z,21.80
2018-08-11T18:57:30.277Z,21.70
2018-08-11T18:59:57.917Z,21.60
2018-08-11T19:02:25.779Z,21.50
2018-08-11T19:04:53.371Z,21.30
2018-08-11T19:07:21.015Z,21.30
2018-08-11T19:09:48.645Z,21.20
2018-08-11T19:12:16.328Z,21.00
2018-08-11T19:14:44.046Z,21.00
2018-08-11T19:17:11.759Z,20.80
2018-08-11T19:19:39.425Z,20.80
2018-08-11T19:22:07.102Z,20.60
2018-08-11T19:24:34.732Z,20.60
2018-08-11T19:27:03.221Z,20.50
2018-08-11T19:29:30.864Z,20.40
2018-08-11T19:31:58.442Z,20.40
2018-08-11T19:34:26.026Z,20.30
2018-08-11T19:36:53.635Z,20.30
2018-08-11T19:39:21.292Z,20.30
2018-08-11T19:41:49.466Z,20.20
2018-08-11T19:44:17.071Z,20.20
2018-08-11T19:46:44.706Z,20.00
2018-08-11T19:49:12.284Z,20.00
2018-08-11T19:51:39.903Z,19.90
2018-08-11T19:54:07.502Z,19.80
2018-08-11T19:56:36.012Z,19.70
2018-08-11T19:59:04.794Z,19.60
2018-08-11T20:01:32.498Z,19.60
2018-08-11T20:04:00.130Z,19.50
2018-08-11T20:06:27.722Z,19.40
2018-08-11T20:08:55.377Z,19.40
2018-08-11T20:11:23.018Z,19.30
2018-08-11T20:13:50.722Z,19.30
2018-08-11T20:16:18.336Z,19.30
2018-08-11T20:18:45.937Z,19.30
2018-08-11T20:21:13.509Z,19.30
2018-08-11T20:23:41.131Z,19.20
2018-08-11T20:26:08.726Z,19.30
2018-08-11T20:28:36.683Z,19.10
2018-08-11T20:31:04.356Z,19.10
2018-08-11T20:33:32.629Z,19.10
2018-08-11T20:36:00.213Z,19.00
2018-08-11T20:38:28.294Z,18.90
2018-08-11T20:40:55.894Z,18.80
2018-08-11T20:43:23.578Z,18.80
2018-08-11T20:45:51.355Z,18.70
2018-08-11T20:48:19.012Z,18.60
2018-08-11T20:50:46.716Z,18.50
2018-08-11T20:53:14.475Z,18.40
2018-08-11T20:55:42.167Z,18.40
2018-08-11T20:58:09.857Z,18.30
2018-08-11T21:00:38.157Z,18.20
2018-08-11T21:03:08.609Z,18.20
2018-08-11T21:05:36.946Z,18.10
2018-08-11T21:08:05.249Z,18.00
2018-08-11T21:10:32.841Z,17.90
2018-08-11T21:13:00.500Z,17.80
2018-08-11T21:15:28.122Z,17.70
2018-08-11T21:17:55.723Z,17.70
2018-08-11T21:20:23.458Z,17.60
2018-08-11T21:22:51.099Z,17.60
2018-08-11T21:25:18.817Z,17.40
2018-08-11T21:27:46.464Z,17.40
2018-08-11T21:30:14.636Z,17.30
2018-08-11T21:32:42.462Z,17.20
2018-08-11T21:35:10.863Z,17.10
2018-08-11T21:37:38.541Z,17.10
2018-08-11T21:40:09.956Z,17.00
2018-08-11T21:42:38.232Z,16.90
2018-08-11T21:45:06.484Z,16.80
2018-08-11T21:47:34.076Z,16.70
2018-08-11T21:50:01.671Z,16.70
2018-08-11T21:52:29.338Z,16.70
2018-08-11T21:54:56.933Z,16.60
2018-08-11T21:57:24.540Z,16.60
2018-08-11T21:59:52.398Z,16.50
2018-08-11T22:02:20.580Z,16.50
2018-08-11T22:04:48.202Z,16.50
2018-08-11T22:07:15.843Z,16.40
2018-08-11T22:09:43.502Z,16.40
2018-08-11T22:12:11.140Z,16.40
2018-08-11T22:14:38.903Z,16.30
2018-08-11T22:17:06.484Z,16.20
2018-08-11T22:19:34.080Z,16.30
2018-08-11T22:22:01.702Z,16.30
2018-08-11T22:24:29.327Z,16.30
2018-08-11T22:26:56.881Z,16.30
2018-08-11T22:29:24.507Z,16.30
2018-08-11T22:31:52.113Z,16.30
2018-08-11T22:34:19.674Z,16.10
2018-08-11T22:36:47.341Z,16.10
2018-08-11T22:39:15.603Z,16.00
2018-08-11T22:41:43.216Z,16.00
2018-08-11T22:44:11.387Z,15.90
2018-08-11T22:46:38.978Z,15.90
2018-08-11T22:49:06.589Z,15.80
2018-08-11T22:51:34.251Z,15.80
2018-08-11T22:54:01.873Z,15.80
2018-08-11T22:56:29.530Z,15.80
2018-08-11T22:58:57.101Z,15.80
2018-08-11T23:01:26.251Z,15.70
2018-08-11T23:03:54.032Z,15.70
2018-08-11T23:06:21.713Z,15.60
2018-08-11T23:08:49.319Z,15.70
2018-08-11T23:11:17.008Z,15.60
2018-08-11T23:13:44.608Z,15.70
2018-08-11T23:16:12.264Z,15.60
2018-08-11T23:18:39.873Z,15.60
2018-08-11T23:21:07.611Z,15.50
2018-08-11T23:23:35.264Z,15.50
2018-08-11T23:26:02.852Z,15.40
2018-08-11T23:28:30.475Z,15.50
2018-08-11T23:30:58.007Z,15.40
2018-08-11T23:33:25.614Z,15.40
2018-08-11T23:35:53.179Z,15.30
2018-08-11T23:38:20.709Z,15.20
2018-08-11T23:40:48.282Z,15.20
2018-08-11T23:43:15.886Z,15.20
2018-08-11T23:45:43.489Z,15.20
2018-08-11T23:48:11.079Z,15.20
2018-08-11T23:50:38.635Z,15.00
2018-08-11T23:53:06.197Z,14.90
2018-08-11T23:55:33.809Z,14.90
2018-08-11T23:58:01.369Z,14.90
